createdAt,value
2019-05-13T00:00:23.643Z,3.13
2019-05-13T00:02:50.980Z,3.63
2019-05-13T00:05:19.609Z,3.47
2019-05-13T00:07:46.856Z,3.57
2019-05-13T00:10:14.888Z,3.07
2019-05-13T00:12:44.683Z,3.40
2019-05-13T00:15:13.925Z,3.67
2019-05-13T00:17:41.169Z,3.03
2019-05-13T00:20:08.345Z,3.23
2019-05-13T00:22:35.622Z,3.43
2019-05-13T00:25:04.033Z,2.87
2019-05-13T00:27:33.730Z,2.73
2019-05-13T00:30:00.998Z,3.30
2019-05-13T00:32:28.264Z,3.30
2019-05-13T00:34:55.550Z,3.17
2019-05-13T00:37:24.450Z,2.70
2019-05-13T00:39:54.188Z,3.23
2019-05-13T00:42:21.144Z,3.60
2019-05-13T00:44:48.511Z,4.23
2019-05-13T00:47:18.296Z,2.57
2019-05-13T00:49:45.554Z,2.97
2019-05-13T00:52:14.288Z,3.13
2019-05-13T00:54:44.018Z,3.13
2019-05-13T00:57:13.245Z,3.67
2019-05-13T00:59:40.141Z,3.07
2019-05-13T01:02:07.427Z,3.00
2019-05-13T01:04:34.729Z,2.93
2019-05-13T01:07:04.139Z,3.73
2019-05-13T01:09:31.249Z,2.97
2019-05-13T01:11:58.456Z,3.13
2019-05-13T01:14:27.573Z,3.10
2019-05-13T01:16:54.902Z,3.07
2019-05-13T01:19:23.806Z,3.23
2019-05-13T01:21:54.059Z,4.27
2019-05-13T01:24:21.531Z,3.07
2019-05-13T01:26:48.803Z,3.13
2019-05-13T01:29:16.112Z,3.20
2019-05-13T01:31:43.662Z,4.77
2019-05-13T01:34:10.962Z,3.30
2019-05-13T01:36:39.963Z,2.97
2019-05-13T01:39:07.342Z,3.00
2019-05-13T01:41:34.788Z,3.10
2019-05-13T01:44:03.965Z,3.47
2019-05-13T01:46:31.601Z,3.27
2019-05-13T01:48:58.868Z,3.33
2019-05-13T01:51:26.194Z,3.50
2019-05-13T01:53:53.540Z,3.50
2019-05-13T01:56:23.391Z,3.23
2019-05-13T01:58:50.069Z,2.90
2019-05-13T02:01:17.335Z,3.03
2019-05-13T02:03:44.638Z,2.90
2019-05-13T02:06:13.962Z,3.53
2019-05-13T02:08:41.210Z,5.53
2019-05-13T02:11:08.519Z,3.23
2019-05-13T02:13:35.807Z,3.10
2019-05-13T02:16:04.113Z,4.40
2019-05-13T02:18:34.229Z,3.30
2019-05-13T02:21:04.840Z,3.50
2019-05-13T02:23:30.527Z,3.33
2019-05-13T02:25:57.794Z,4.40
2019-05-13T02:28:25.339Z,3.33
2019-05-13T02:30:56.049Z,3.33
2019-05-13T02:33:23.142Z,3.30
2019-05-13T02:35:53.048Z,3.07
2019-05-13T02:38:28.316Z,5.43
2019-05-13T02:40:52.692Z,3.63
2019-05-13T02:43:22.739Z,3.40
2019-05-13T02:45:48.637Z,3.03
2019-05-13T02:48:15.922Z,3.47
2019-05-13T02:50:44.088Z,3.40
2019-05-13T02:53:13.580Z,3.40
2019-05-13T02:55:43.736Z,3.47
2019-05-13T02:58:12.398Z,3.60
2019-05-13T03:00:39.337Z,3.40
2019-05-13T03:03:06.639Z,3.47
2019-05-13T03:05:33.928Z,3.93
2019-05-13T03:08:03.577Z,3.57
2019-05-13T03:10:33.155Z,3.90
2019-05-13T03:13:03.348Z,3.77
2019-05-13T03:15:36.643Z,3.00
2019-05-13T03:18:07.278Z,3.80
2019-05-13T03:20:35.381Z,3.40
2019-05-13T03:23:03.295Z,3.27
2019-05-13T03:25:33.028Z,3.50
2019-05-13T03:28:03.154Z,3.40
2019-05-13T03:30:35.180Z,3.53
2019-05-13T03:33:09.627Z,3.57
2019-05-13T03:35:36.061Z,3.83
2019-05-13T03:38:03.430Z,3.57
2019-05-13T03:40:33.014Z,3.63
2019-05-13T03:43:02.707Z,4.37
2019-05-13T03:45:33.044Z,3.07
2019-05-13T03:48:03.984Z,3.27
2019-05-13T03:50:33.385Z,3.80
2019-05-13T03:53:02.655Z,3.80
2019-05-13T03:55:28.118Z,3.70
2019-05-13T03:57:55.427Z,4.50
2019-05-13T04:00:23.743Z,3.90
2019-05-13T04:02:52.280Z,3.63
2019-05-13T04:05:22.906Z,3.57
2019-05-13T04:07:52.336Z,3.80
2019-05-13T04:10:22.889Z,3.93
2019-05-13T04:12:52.393Z,4.30
2019-05-13T04:15:18.528Z,3.87
2019-05-13T04:17:45.936Z,3.47
2019-05-13T04:20:13.314Z,4.10
2019-05-13T04:22:42.551Z,3.90
2019-05-13T04:25:12.637Z,4.40
2019-05-13T04:27:42.693Z,4.30
2019-05-13T04:30:12.940Z,3.87
2019-05-13T04:32:39.014Z,4.50
2019-05-13T04:35:06.704Z,3.67
2019-05-13T04:37:34.098Z,3.40
2019-05-13T04:40:03.689Z,4.00
2019-05-13T04:42:33.298Z,3.90
2019-05-13T04:45:02.965Z,3.43
2019-05-13T04:47:33.106Z,3.70
2019-05-13T04:50:02.942Z,3.80
2019-05-13T04:52:29.220Z,4.23
2019-05-13T04:54:56.564Z,4.23
2019-05-13T04:57:23.865Z,4.20
2019-05-13T04:59:54.880Z,4.87
2019-05-13T05:02:58.164Z,3.63
2019-05-13T05:06:17.342Z,3.73
2019-05-13T05:09:06.129Z,3.60
2019-05-13T05:12:12.438Z,3.90
2019-05-13T05:15:36.271Z,3.47
2019-05-13T05:18:42.101Z,3.50
2019-05-13T05:21:21.855Z,3.40
2019-05-13T05:24:42.468Z,3.60
2019-05-13T05:27:47.378Z,4.00
2019-05-13T05:31:02.786Z,3.33
2019-05-13T05:34:11.508Z,3.60
2019-05-13T05:37:03.997Z,3.40
2019-05-13T05:39:31.636Z,4.67
2019-05-13T05:42:02.000Z,3.87
2019-05-13T05:44:32.528Z,3.97
2019-05-13T05:47:02.726Z,3.77
2019-05-13T05:49:32.010Z,4.97
2019-05-13T05:52:02.039Z,3.53
2019-05-13T05:54:33.286Z,4.73
2019-05-13T05:57:03.194Z,3.80
2019-05-13T05:59:32.000Z,3.60
2019-05-13T06:02:02.028Z,4.23
2019-05-13T06:04:32.161Z,4.00
2019-05-13T06:06:58.860Z,4.50
2019-05-13T06:09:26.400Z,3.63
2019-05-13T06:11:53.880Z,5.43
2019-05-13T06:14:22.072Z,4.77
2019-05-13T06:16:51.740Z,4.00
2019-05-13T06:19:19.434Z,3.70
2019-05-13T06:21:47.233Z,3.63
2019-05-13T06:24:14.848Z,4.70
2019-05-13T06:26:42.228Z,3.53
2019-05-13T06:29:11.693Z,4.40
2019-05-13T06:31:41.961Z,4.53
2019-05-13T06:34:12.565Z,3.73
2019-05-13T06:36:41.810Z,3.27
2019-05-13T06:39:12.128Z,5.47
2019-05-13T06:41:41.519Z,3.70
2019-05-13T06:44:08.141Z,3.37
2019-05-13T06:46:35.315Z,3.30
2019-05-13T06:49:03.029Z,3.80
2019-05-13T06:51:31.407Z,3.10
2019-05-13T06:53:58.914Z,3.17
2019-05-13T06:56:26.228Z,2.77
2019-05-13T06:58:53.529Z,3.40
2019-05-13T07:01:21.742Z,3.70
2019-05-13T07:03:51.676Z,4.50
2019-05-13T07:06:21.504Z,2.93
2019-05-13T07:08:48.056Z,4.60
2019-05-13T07:11:21.076Z,4.87
2019-05-13T07:13:44.814Z,3.13
2019-05-13T07:16:13.319Z,3.57
2019-05-13T07:18:41.582Z,3.33
2019-05-13T07:21:09.101Z,3.37
2019-05-13T07:23:36.376Z,6.10
2019-05-13T07:26:04.089Z,3.33
2019-05-13T07:28:32.335Z,5.20
2019-05-13T07:31:01.961Z,3.10
2019-05-13T07:33:31.844Z,2.97
2019-05-13T07:36:02.310Z,3.67
2019-05-13T07:38:28.505Z,4.67
2019-05-13T07:41:01.547Z,4.50
2019-05-13T07:43:29.028Z,3.00
2019-05-13T07:45:56.324Z,5.40
2019-05-13T07:48:27.570Z,2.90
2019-05-13T07:50:59.829Z,3.73
2019-05-13T07:53:22.293Z,3.23
2019-05-13T07:55:52.529Z,3.03
2019-05-13T07:58:22.691Z,3.50
2019-05-13T08:00:49.237Z,3.27
2019-05-13T08:03:16.560Z,3.17
2019-05-13T08:05:45.656Z,3.37
2019-05-13T08:08:12.825Z,4.00
2019-05-13T08:10:41.410Z,4.57
2019-05-13T08:13:08.971Z,3.73
2019-05-13T08:15:36.301Z,4.97
2019-05-13T08:18:03.579Z,3.87
2019-05-13T08:20:32.788Z,2.60
2019-05-13T08:23:02.656Z,4.20
2019-05-13T08:25:31.466Z,4.13
2019-05-13T08:27:58.651Z,3.07
2019-05-13T08:30:25.951Z,4.83
2019-05-13T08:32:53.384Z,4.10
2019-05-13T08:35:22.573Z,2.07
2019-05-13T08:37:52.043Z,3.70
2019-05-13T08:40:20.236Z,3.93
2019-05-13T08:42:48.263Z,2.73
2019-05-13T08:45:15.599Z,3.17
2019-05-13T08:47:42.881Z,4.10
2019-05-13T08:50:12.037Z,3.53
2019-05-13T08:52:42.033Z,3.30
2019-05-13T08:55:13.546Z,2.60
2019-05-13T08:57:38.665Z,2.70
2019-05-13T09:00:06.522Z,4.73
2019-05-13T09:02:33.814Z,2.47
2019-05-13T09:05:02.306Z,2.20
2019-05-13T09:07:31.875Z,2.23
2019-05-13T09:09:59.053Z,3.73
2019-05-13T09:12:32.094Z,2.43
2019-05-13T09:14:55.494Z,3.13
2019-05-13T09:17:22.913Z,2.40
2019-05-13T09:19:51.936Z,4.30
2019-05-13T09:22:21.343Z,4.17
2019-05-13T09:24:48.622Z,3.23
2019-05-13T09:27:16.012Z,3.67
2019-05-13T09:29:43.321Z,4.78
2019-05-13T09:32:12.461Z,2.90
2019-05-13T09:34:42.193Z,2.27
2019-05-13T09:37:11.693Z,3.17
2019-05-13T09:39:41.490Z,2.70
2019-05-13T09:42:08.951Z,3.95
2019-05-13T09:44:36.449Z,2.50
2019-05-13T09:47:03.733Z,2.55
2019-05-13T09:49:32.893Z,2.35
2019-05-13T09:52:01.695Z,4.15
2019-05-13T09:54:32.448Z,2.20
2019-05-13T09:56:58.380Z,3.27
2019-05-13T09:59:25.738Z,1.50
2019-05-13T10:01:53.061Z,1.75
2019-05-13T10:04:22.290Z,2.50
2019-05-13T10:06:49.510Z,3.65
2019-05-13T10:09:17.011Z,2.72
2019-05-13T10:11:44.361Z,1.77
2019-05-13T10:14:11.890Z,1.90
2019-05-13T10:16:42.101Z,2.92
2019-05-13T10:19:12.475Z,3.17
2019-05-13T10:21:41.402Z,2.30
2019-05-13T10:24:08.965Z,2.37
2019-05-13T10:26:36.999Z,1.90
2019-05-13T10:29:04.393Z,1.35
2019-05-13T10:31:31.826Z,1.52
2019-05-13T10:34:02.006Z,2.67
2019-05-13T10:36:28.389Z,2.42
2019-05-13T10:38:55.776Z,4.87
2019-05-13T10:41:23.464Z,3.60
2019-05-13T10:43:52.016Z,3.52
2019-05-13T10:46:21.612Z,4.72
2019-05-13T10:48:52.703Z,2.55
2019-05-13T10:51:22.388Z,3.25
2019-05-13T10:53:48.998Z,2.87
2019-05-13T10:56:16.310Z,2.13
2019-05-13T10:58:43.908Z,3.57
2019-05-13T11:01:13.024Z,2.95
2019-05-13T11:03:42.731Z,3.08
2019-05-13T11:06:11.643Z,5.85
2019-05-13T11:08:41.986Z,1.53
2019-05-13T11:11:08.346Z,4.50
2019-05-13T11:13:52.215Z,3.13
2019-05-13T11:16:04.620Z,5.10
2019-05-13T11:18:31.991Z,2.50
2019-05-13T11:21:02.040Z,1.62
2019-05-13T11:23:32.225Z,1.67
2019-05-13T11:25:58.932Z,3.30
2019-05-13T11:28:26.232Z,3.85
2019-05-13T11:30:53.932Z,1.80
2019-05-13T11:33:22.283Z,2.15
2019-05-13T11:35:52.329Z,2.37
2019-05-13T11:38:21.647Z,3.40
2019-05-13T11:40:48.281Z,2.53
2019-05-13T11:43:15.675Z,3.77
2019-05-13T11:45:42.976Z,2.72
2019-05-13T11:48:13.227Z,3.75
2019-05-13T11:50:42.908Z,2.22
2019-05-13T11:53:30.101Z,2.05
2019-05-13T11:55:42.246Z,2.35
2019-05-13T11:58:08.978Z,2.02
2019-05-13T12:00:54.169Z,2.02
2019-05-13T12:03:23.128Z,2.22
2019-05-13T12:05:53.700Z,2.05
2019-05-13T12:08:22.707Z,1.40
2019-05-13T12:10:51.876Z,2.72
2019-05-13T12:13:18.810Z,2.35
2019-05-13T12:15:49.748Z,2.25
2019-05-13T12:18:15.464Z,2.75
2019-05-13T12:20:42.934Z,2.35
2019-05-13T12:23:13.009Z,4.60
2019-05-13T12:25:42.894Z,3.47
2019-05-13T12:28:11.313Z,1.77
2019-05-13T12:30:37.895Z,1.80
2019-05-13T12:33:05.389Z,3.17
2019-05-13T12:35:32.991Z,5.10
2019-05-13T12:38:00.373Z,1.85
2019-05-13T12:40:27.656Z,2.83
2019-05-13T12:42:55.093Z,2.15
2019-05-13T12:45:23.477Z,3.77
2019-05-13T12:47:52.999Z,3.17
2019-05-13T12:50:23.650Z,1.80
2019-05-13T12:52:51.495Z,2.83
2019-05-13T12:55:18.841Z,2.40
2019-05-13T12:57:47.079Z,1.70
2019-05-13T13:00:14.876Z,2.10
2019-05-13T13:02:50.049Z,3.52
2019-05-13T13:05:19.665Z,2.27
2019-05-13T13:07:42.628Z,1.57
2019-05-13T13:10:14.560Z,2.37
2019-05-13T13:12:41.920Z,2.10
2019-05-13T13:15:33.040Z,3.35
2019-05-13T13:17:38.220Z,1.85
2019-05-13T13:20:09.624Z,2.47
2019-05-13T13:22:36.507Z,2.20
2019-05-13T13:25:05.245Z,3.83
2019-05-13T13:28:00.037Z,1.55
2019-05-13T13:30:04.282Z,2.58
2019-05-13T13:32:33.065Z,2.33
2019-05-13T13:35:03.445Z,2.22
2019-05-13T13:37:29.433Z,2.40
2019-05-13T13:39:56.777Z,2.00
2019-05-13T13:42:24.158Z,2.05
2019-05-13T13:44:53.726Z,2.30
2019-05-13T13:47:23.986Z,1.45
2019-05-13T13:49:53.265Z,1.57
2019-05-13T13:52:19.077Z,3.10
2019-05-13T13:54:46.259Z,2.25
2019-05-13T13:57:13.834Z,1.22
2019-05-13T14:00:14.799Z,1.57
2019-05-13T14:02:13.418Z,2.22
2019-05-13T14:04:42.206Z,1.27
2019-05-13T14:07:22.398Z,1.92
2019-05-13T14:09:38.177Z,2.83
2019-05-13T14:12:05.449Z,2.67
2019-05-13T14:14:32.719Z,1.57
2019-05-13T14:17:02.266Z,2.20
2019-05-13T14:19:29.329Z,1.30
2019-05-13T14:21:56.545Z,1.50
2019-05-13T14:24:23.859Z,1.50
2019-05-13T14:26:52.931Z,1.55
2019-05-13T14:29:25.698Z,1.20
2019-05-13T14:31:52.046Z,2.42
2019-05-13T14:34:19.566Z,1.67
2019-05-13T14:36:46.877Z,2.27
2019-05-13T14:39:14.155Z,2.25
2019-05-13T14:41:42.593Z,1.20
2019-05-13T14:44:12.319Z,3.08
2019-05-13T14:46:47.058Z,1.15
2019-05-13T14:49:08.439Z,1.30
2019-05-13T14:51:35.685Z,1.60
2019-05-13T14:54:03.117Z,1.95
2019-05-13T14:56:32.409Z,2.35
2019-05-13T14:59:00.246Z,1.95
2019-05-13T15:01:28.825Z,1.12
2019-05-13T15:03:56.183Z,1.62
2019-05-13T15:06:23.466Z,1.10
2019-05-13T15:08:52.618Z,1.52
2019-05-13T15:11:21.956Z,1.37
2019-05-13T15:13:51.165Z,3.17
2019-05-13T15:16:22.433Z,1.60
2019-05-13T15:18:49.428Z,1.52
2019-05-13T15:21:16.750Z,2.17
2019-05-13T15:23:44.061Z,2.67
2019-05-13T15:26:11.810Z,2.33
2019-05-13T15:28:39.308Z,1.30
2019-05-13T15:31:06.625Z,2.17
2019-05-13T15:33:34.184Z,2.55
2019-05-13T15:36:03.281Z,2.15
2019-05-13T15:38:32.072Z,1.75
2019-05-13T15:41:01.896Z,1.10
2019-05-13T15:43:28.854Z,2.33
2019-05-13T15:46:03.570Z,2.55
2019-05-13T15:48:31.692Z,3.05
2019-05-13T15:50:59.092Z,2.02
2019-05-13T15:53:26.404Z,2.15
2019-05-13T15:55:53.710Z,1.98
2019-05-13T15:58:37.732Z,2.15
2019-05-13T16:00:52.318Z,1.32
2019-05-13T16:03:19.403Z,3.20
2019-05-13T16:05:46.702Z,1.98
2019-05-13T16:08:13.987Z,1.10
2019-05-13T16:10:41.920Z,1.00
2019-05-13T16:13:11.873Z,1.72
2019-05-13T16:15:41.350Z,1.37
2019-05-13T16:18:08.105Z,3.02
2019-05-13T16:20:35.837Z,1.65
2019-05-13T16:23:03.217Z,3.17
2019-05-13T16:25:31.931Z,1.82
2019-05-13T16:28:01.351Z,1.20
2019-05-13T16:30:28.588Z,1.40
2019-05-13T16:32:55.907Z,1.07
2019-05-13T16:35:23.215Z,1.15
2019-05-13T16:37:50.822Z,2.40
2019-05-13T16:40:21.727Z,1.52
2019-05-13T16:42:51.718Z,1.70
2019-05-13T16:45:18.471Z,3.83
2019-05-13T16:47:56.579Z,1.30
2019-05-13T16:50:14.928Z,1.45
2019-05-13T16:52:42.188Z,1.27
2019-05-13T16:55:12.611Z,2.37
2019-05-13T16:57:38.849Z,1.62
2019-05-13T17:00:07.062Z,3.10
2019-05-13T17:02:34.466Z,1.80
2019-05-13T17:05:01.774Z,1.30
2019-05-13T17:07:29.074Z,1.27
2019-05-13T17:09:56.320Z,2.72
2019-05-13T17:12:23.615Z,2.45
2019-05-13T17:14:52.316Z,1.50
2019-05-13T17:17:19.781Z,2.33
2019-05-13T17:19:47.087Z,2.12
2019-05-13T17:22:14.337Z,1.45
2019-05-13T17:24:42.663Z,1.40
2019-05-13T17:27:12.131Z,2.12
2019-05-13T17:29:39.317Z,1.85
2019-05-13T17:32:06.624Z,1.77
2019-05-13T17:34:33.905Z,1.47
2019-05-13T17:37:02.787Z,2.17
2019-05-13T17:39:32.143Z,1.52
2019-05-13T17:42:01.436Z,1.85
2019-05-13T17:44:28.740Z,1.77
2019-05-13T17:46:55.962Z,2.33
2019-05-13T17:49:23.348Z,3.02
2019-05-13T17:51:51.673Z,3.40
2019-05-13T17:54:19.267Z,2.55
2019-05-13T17:56:46.605Z,5.95
2019-05-13T17:59:16.172Z,3.30
2019-05-13T18:01:43.110Z,3.12
2019-05-13T18:04:11.900Z,2.80
2019-05-13T18:06:41.545Z,1.20
2019-05-13T18:09:08.591Z,1.87
2019-05-13T18:11:35.882Z,1.77
2019-05-13T18:14:03.492Z,2.35
2019-05-13T18:16:32.378Z,3.37
2019-05-13T18:18:59.870Z,3.47
2019-05-13T18:21:27.194Z,2.80
2019-05-13T18:23:54.465Z,3.33
2019-05-13T18:26:21.907Z,1.70
2019-05-13T18:28:51.303Z,2.75
2019-05-13T18:31:18.429Z,1.87
2019-05-13T18:33:45.724Z,1.20
2019-05-13T18:36:13.041Z,2.75
2019-05-13T18:38:41.846Z,2.92
2019-05-13T18:41:09.359Z,2.67
2019-05-13T18:43:36.684Z,3.40
2019-05-13T18:46:03.953Z,2.42
2019-05-13T18:48:32.300Z,3.35
2019-05-13T18:51:01.358Z,2.75
2019-05-13T18:53:28.806Z,2.50
2019-05-13T18:55:56.159Z,4.70
2019-05-13T18:58:23.562Z,2.90
2019-05-13T19:00:52.308Z,2.42
2019-05-13T19:03:21.934Z,2.60
2019-05-13T19:05:50.608Z,4.10
2019-05-13T19:08:17.904Z,4.85
2019-05-13T19:10:45.106Z,6.25
2019-05-13T19:13:12.568Z,3.92
2019-05-13T19:15:41.160Z,3.92
2019-05-13T19:18:08.606Z,3.03
2019-05-13T19:20:35.941Z,3.37
2019-05-13T19:23:03.367Z,3.30
2019-05-13T19:25:32.383Z,3.58
2019-05-13T19:28:02.225Z,3.47
2019-05-13T19:30:28.917Z,4.30
2019-05-13T19:32:56.247Z,3.17
2019-05-13T19:35:23.530Z,3.17
2019-05-13T19:37:51.577Z,4.15
2019-05-13T19:40:19.136Z,3.90
2019-05-13T19:42:46.459Z,4.90
2019-05-13T19:45:13.848Z,2.72
2019-05-13T19:47:41.831Z,2.70
2019-05-13T19:50:09.358Z,3.37
2019-05-13T19:52:36.781Z,3.80
2019-05-13T19:55:04.429Z,3.80
2019-05-13T19:57:33.276Z,4.50
2019-05-13T20:00:03.206Z,4.40
2019-05-13T20:02:37.353Z,3.70
2019-05-13T20:05:08.793Z,5.03
2019-05-13T20:07:38.068Z,5.43
2019-05-13T20:10:05.795Z,5.53
2019-05-13T20:12:33.361Z,5.20
2019-05-13T20:15:01.535Z,7.20
2019-05-13T20:17:28.985Z,7.27
2019-05-13T20:19:56.575Z,16.37
2019-05-13T20:22:24.288Z,7.30
2019-05-13T20:24:51.892Z,9.53
2019-05-13T20:27:21.010Z,6.70
2019-05-13T20:29:48.477Z,8.90
2019-05-13T20:32:15.785Z,8.33
2019-05-13T20:34:43.498Z,6.17
2019-05-13T20:37:12.430Z,7.23
2019-05-13T20:39:42.414Z,7.00
2019-05-13T20:42:12.262Z,6.13
2019-05-13T20:44:39.180Z,5.23
2019-05-13T20:47:06.469Z,4.53
2019-05-13T20:49:33.772Z,4.57
2019-05-13T20:52:01.162Z,4.50
2019-05-13T20:54:28.426Z,5.03
2019-05-13T20:56:55.754Z,6.53
2019-05-13T20:59:23.065Z,4.90
2019-05-13T21:01:51.138Z,4.40
2019-05-13T21:04:18.907Z,3.03
2019-05-13T21:06:46.176Z,3.90
2019-05-13T21:09:16.924Z,4.43
2019-05-13T21:11:42.682Z,4.80
2019-05-13T21:14:09.963Z,5.90
2019-05-13T21:16:37.268Z,3.33
2019-05-13T21:19:06.389Z,4.07
2019-05-13T21:21:33.588Z,3.87
2019-05-13T21:24:01.531Z,3.20
2019-05-13T21:26:31.349Z,3.87
2019-05-13T21:28:58.271Z,4.87
2019-05-13T21:31:25.488Z,2.40
2019-05-13T21:33:52.758Z,3.17
2019-05-13T21:36:21.583Z,4.40
2019-05-13T21:38:49.066Z,2.90
2019-05-13T21:41:16.440Z,3.30
2019-05-13T21:43:43.769Z,2.80
2019-05-13T21:46:12.084Z,3.60
2019-05-13T21:48:41.503Z,3.20
2019-05-13T21:51:08.642Z,1.93
2019-05-13T21:53:35.953Z,3.67
2019-05-13T21:56:03.184Z,2.53
2019-05-13T21:58:31.231Z,1.70
2019-05-13T22:01:01.363Z,2.63
2019-05-13T22:03:28.465Z,4.00
2019-05-13T22:05:57.323Z,3.57
2019-05-13T22:08:24.683Z,3.07
2019-05-13T22:10:52.570Z,1.93
2019-05-13T22:13:20.132Z,3.53
2019-05-13T22:15:47.537Z,1.57
2019-05-13T22:18:14.815Z,2.50
2019-05-13T22:20:49.715Z,3.53
2019-05-13T22:23:11.946Z,3.30
2019-05-13T22:25:43.437Z,2.73
2019-05-13T22:28:08.668Z,5.47
2019-05-13T22:30:35.942Z,6.57
2019-05-13T22:33:03.225Z,5.03
2019-05-13T22:35:32.287Z,3.70
2019-05-13T22:38:01.718Z,4.73
2019-05-13T22:40:29.315Z,3.37
2019-05-13T22:42:57.139Z,2.33
2019-05-13T22:45:24.581Z,1.93
2019-05-13T22:48:12.082Z,2.03
2019-05-13T22:50:41.657Z,2.27
2019-05-13T22:53:09.005Z,1.93
2019-05-13T22:55:36.381Z,2.87
2019-05-13T22:58:03.573Z,1.97
2019-05-13T23:00:31.695Z,3.77
2019-05-13T23:03:01.474Z,2.03
2019-05-13T23:05:28.349Z,1.63
2019-05-13T23:07:55.600Z,1.43
2019-05-13T23:10:22.891Z,4.03
2019-05-13T23:12:51.520Z,1.30
2019-05-13T23:15:21.138Z,1.73
2019-05-13T23:17:48.629Z,1.30
2019-05-13T23:20:16.055Z,2.07
2019-05-13T23:22:43.427Z,2.37
2019-05-13T23:25:12.159Z,2.40
2019-05-13T23:27:41.497Z,2.33
2019-05-13T23:30:09.050Z,2.33
2019-05-13T23:32:36.392Z,3.80
2019-05-13T23:35:03.773Z,2.80
2019-05-13T23:37:31.167Z,1.67
2019-05-13T23:39:58.445Z,1.40
2019-05-13T23:42:25.735Z,2.37
2019-05-13T23:44:52.999Z,1.87
2019-05-13T23:47:21.831Z,2.03
2019-05-13T23:49:51.196Z,3.13
2019-05-13T23:52:18.479Z,1.87
2019-05-13T23:54:45.780Z,1.67
2019-05-13T23:57:13.049Z,2.03
2019-05-13T23:59:41.900Z,2.00
